sensor_id;sensor_type;location;lat;lon;timestamp;temperature;humidity
3842;DHT22;1936;47.074;15.336;2022-11-13T00:00:50;6.80;99.90
3842;DHT22;1936;47.074;15.336;2022-11-13T00:02:53;6.80;99.90
3842;DHT22;1936;47.074;15.336;2022-11-13T00:04:56;6.80;99.90
3842;DHT22;1936;47.074;15.336;2022-11-13T00:06:59;6.80;99.90
3842;DHT22;1936;47.074;15.336;2022-11-13T00:09:09;6.80;99.90
3842;DHT22;1936;47.074;15.336;2022-11-13T00:11:15;6.80;99.90
3842;DHT22;1936;47.074;15.336;2022-11-13T00:13:19;6.80;99.90
3842;DHT22;1936;47.074;15.336;2022-11-13T00:15:28;6.80;99.90
3842;DHT22;1936;47.074;15.336;2022-11-13T00:17:31;6.90;99.90
3842;DHT22;1936;47.074;15.336;2022-11-13T00:19:35;6.90;99.90
3842;DHT22;1936;47.074;15.336;2022-11-13T00:21:38;6.90;99.90
3842;DHT22;1936;47.074;15.336;2022-11-13T00:23:42;6.90;99.90
3842;DHT22;1936;47.074;15.336;2022-11-13T00:25:47;7.00;99.90
3842;DHT22;1936;47.074;15.336;2022-11-13T00:27:50;6.90;99.90
3842;DHT22;1936;47.074;15.336;2022-11-13T00:29:54;7.00;99.90
3842;DHT22;1936;47.074;15.336;2022-11-13T00:31:57;7.00;99.90
3842;DHT22;1936;47.074;15.336;2022-11-13T00:34:01;6.90;99.90
3842;DHT22;1936;47.074;15.336;2022-11-13T00:36:26;7.00;99.90
3842;DHT22;1936;47.074;15.336;2022-11-13T00:38:30;7.00;99.90
3842;DHT22;1936;47.074;15.336;2022-11-13T00:40:33;7.00;99.90
3842;DHT22;1936;47.074;15.336;2022-11-13T00:42:38;6.90;99.90
3842;DHT22;1936;47.074;15.336;2022-11-13T00:44:41;6.90;99.90
3842;DHT22;1936;47.074;15.336;2022-11-13T00:46:44;6.90;99.90
3842;DHT22;1936;47.074;15.336;2022-11-13T00:48:47;6.90;99.90
3842;DHT22;1936;47.074;15.336;2022-11-13T00:50:51;6.90;99.90
3842;DHT22;1936;47.074;15.336;2022-11-13T00:52:55;6.80;99.90
3842;DHT22;1936;47.074;15.336;2022-11-13T00:54:58;6.80;99.90
3842;DHT22;1936;47.074;15.336;2022-11-13T00:57:02;6.70;99.90
3842;DHT22;1936;47.074;15.336;2022-11-13T00:59:06;6.80;99.90
3842;DHT22;1936;47.074;15.336;2022-11-13T01:01:11;6.80;99.90
3842;DHT22;1936;47.074;15.336;2022-11-13T01:03:16;6.80;99.90
3842;DHT22;1936;47.074;15.336;2022-11-13T01:05:20;6.80;99.90
3842;DHT22;1936;47.074;15.336;2022-11-13T01:07:23;6.80;99.90
3842;DHT22;1936;47.074;15.336;2022-11-13T01:09:26;6.80;99.90
3842;DHT22;1936;47.074;15.336;2022-11-13T01:11:30;6.70;99.90
3842;DHT22;1936;47.074;15.336;2022-11-13T01:13:37;6.80;99.90
3842;DHT22;1936;47.074;15.336;2022-11-13T01:15:43;6.70;99.90
3842;DHT22;1936;47.074;15.336;2022-11-13T01:17:46;6.70;99.90
3842;DHT22;1936;47.074;15.336;2022-11-13T01:19:50;6.60;99.90
3842;DHT22;1936;47.074;15.336;2022-11-13T01:21:57;6.60;99.90
3842;DHT22;1936;47.074;15.336;2022-11-13T01:24:00;6.50;99.90
3842;DHT22;1936;47.074;15.336;2022-11-13T01:26:06;6.50;99.90
3842;DHT22;1936;47.074;15.336;2022-11-13T01:28:10;6.50;99.90
3842;DHT22;1936;47.074;15.336;2022-11-13T01:30:14;6.50;99.90
3842;DHT22;1936;47.074;15.336;2022-11-13T01:32:18;6.40;99.90
3842;DHT22;1936;47.074;15.336;2022-11-13T01:34:22;6.30;99.90
3842;DHT22;1936;47.074;15.336;2022-11-13T01:36:26;6.20;99.90
3842;DHT22;1936;47.074;15.336;2022-11-13T01:38:30;6.10;99.90
3842;DHT22;1936;47.074;15.336;2022-11-13T01:40:44;6.00;99.90
3842;DHT22;1936;47.074;15.336;2022-11-13T01:42:47;5.90;99.90
3842;DHT22;1936;47.074;15.336;2022-11-13T01:44:52;5.80;99.90
3842;DHT22;1936;47.074;15.336;2022-11-13T01:46:56;5.70;99.90
3842;DHT22;1936;47.074;15.336;2022-11-13T01:49:11;5.70;99.90
3842;DHT22;1936;47.074;15.336;2022-11-13T01:51:21;5.60;99.90
3842;DHT22;1936;47.074;15.336;2022-11-13T01:53:27;5.60;99.90
3842;DHT22;1936;47.074;15.336;2022-11-13T01:55:30;5.60;99.90
3842;DHT22;1936;47.074;15.336;2022-11-13T01:57:34;5.50;99.90
3842;DHT22;1936;47.074;15.336;2022-11-13T01:59:40;5.40;99.90
3842;DHT22;1936;47.074;15.336;2022-11-13T02:01:44;5.30;99.90
3842;DHT22;1936;47.074;15.336;2022-11-13T02:03:47;5.20;99.90
3842;DHT22;1936;47.074;15.336;2022-11-13T02:05:52;5.20;99.90
3842;DHT22;1936;47.074;15.336;2022-11-13T02:07:56;5.10;99.90
3842;DHT22;1936;47.074;15.336;2022-11-13T02:09:59;5.00;99.90
3842;DHT22;1936;47.074;15.336;2022-11-13T02:12:09;4.90;99.90
3842;DHT22;1936;47.074;15.336;2022-11-13T02:14:14;4.80;99.90
3842;DHT22;1936;47.074;15.336;2022-11-13T02:16:18;4.70;99.90
3842;DHT22;1936;47.074;15.336;2022-11-13T02:18:24;4.70;99.90
3842;DHT22;1936;47.074;15.336;2022-11-13T02:20:34;4.60;99.90
3842;DHT22;1936;47.074;15.336;2022-11-13T02:22:48;4.50;99.90
3842;DHT22;1936;47.074;15.336;2022-11-13T02:24:55;4.40;99.90
3842;DHT22;1936;47.074;15.336;2022-11-13T02:27:03;4.40;99.90
3842;DHT22;1936;47.074;15.336;2022-11-13T02:29:07;4.30;99.90
3842;DHT22;1936;47.074;15.336;2022-11-13T02:31:12;4.20;99.90
3842;DHT22;1936;47.074;15.336;2022-11-13T02:33:20;4.10;99.90
3842;DHT22;1936;47.074;15.336;2022-11-13T02:35:26;4.00;99.90
3842;DHT22;1936;47.074;15.336;2022-11-13T02:37:30;3.80;99.90
3842;DHT22;1936;47.074;15.336;2022-11-13T02:39:33;3.80;99.90
3842;DHT22;1936;47.074;15.336;2022-11-13T02:41:38;3.70;99.90
3842;DHT22;1936;47.074;15.336;2022-11-13T02:43:42;3.70;99.90
3842;DHT22;1936;47.074;15.336;2022-11-13T02:45:45;3.60;99.90
3842;DHT22;1936;47.074;15.336;2022-11-13T02:47:48;3.60;99.90
3842;DHT22;1936;47.074;15.336;2022-11-13T02:49:52;3.60;99.90
3842;DHT22;1936;47.074;15.336;2022-11-13T02:51:55;3.50;99.90
3842;DHT22;1936;47.074;15.336;2022-11-13T02:53:58;3.50;99.90
3842;DHT22;1936;47.074;15.336;2022-11-13T02:56:02;3.50;99.90
3842;DHT22;1936;47.074;15.336;2022-11-13T02:58:07;3.40;99.90
3842;DHT22;1936;47.074;15.336;2022-11-13T03:00:11;3.30;99.90
3842;DHT22;1936;47.074;15.336;2022-11-13T03:02:15;3.30;99.90
3842;DHT22;1936;47.074;15.336;2022-11-13T03:04:18;3.20;99.90
3842;DHT22;1936;47.074;15.336;2022-11-13T03:06:21;3.20;99.90
3842;DHT22;1936;47.074;15.336;2022-11-13T03:08:25;3.10;99.90
3842;DHT22;1936;47.074;15.336;2022-11-13T03:10:28;3.10;99.90
3842;DHT22;1936;47.074;15.336;2022-11-13T03:12:32;3.10;99.90
3842;DHT22;1936;47.074;15.336;2022-11-13T03:14:37;3.10;99.90
3842;DHT22;1936;47.074;15.336;2022-11-13T03:16:40;3.10;99.90
3842;DHT22;1936;47.074;15.336;2022-11-13T03:18:44;3.00;99.90
3842;DHT22;1936;47.074;15.336;2022-11-13T03:20:47;3.10;99.90
3842;DHT22;1936;47.074;15.336;2022-11-13T03:22:54;3.00;99.90
3842;DHT22;1936;47.074;15.336;2022-11-13T03:24:58;3.00;99.90
3842;DHT22;1936;47.074;15.336;2022-11-13T03:27:01;2.90;99.90
3842;DHT22;1936;47.074;15.336;2022-11-13T03:29:04;2.90;99.90
3842;DHT22;1936;47.074;15.336;2022-11-13T03:31:09;2.90;99.90
3842;DHT22;1936;47.074;15.336;2022-11-13T03:33:15;2.80;99.90
3842;DHT22;1936;47.074;15.336;2022-11-13T03:35:18;2.80;99.90
3842;DHT22;1936;47.074;15.336;2022-11-13T03:37:21;2.80;99.90
3842;DHT22;1936;47.074;15.336;2022-11-13T03:39:25;2.70;99.90
3842;DHT22;1936;47.074;15.336;2022-11-13T03:41:28;2.70;99.90
3842;DHT22;1936;47.074;15.336;2022-11-13T03:43:31;2.70;99.90
3842;DHT22;1936;47.074;15.336;2022-11-13T03:45:34;2.60;99.90
3842;DHT22;1936;47.074;15.336;2022-11-13T03:47:39;2.60;99.90
3842;DHT22;1936;47.074;15.336;2022-11-13T03:49:43;2.60;99.90
3842;DHT22;1936;47.074;15.336;2022-11-13T03:51:46;2.60;99.90
3842;DHT22;1936;47.074;15.336;2022-11-13T03:53:49;2.50;99.90
3842;DHT22;1936;47.074;15.336;2022-11-13T03:55:53;2.40;99.90
3842;DHT22;1936;47.074;15.336;2022-11-13T03:57:56;2.40;99.90
3842;DHT22;1936;47.074;15.336;2022-11-13T03:59:59;2.50;99.90
3842;DHT22;1936;47.074;15.336;2022-11-13T04:02:05;2.50;99.90
3842;DHT22;1936;47.074;15.336;2022-11-13T04:04:10;2.50;99.90
3842;DHT22;1936;47.074;15.336;2022-11-13T04:06:13;2.50;99.90
3842;DHT22;1936;47.074;15.336;2022-11-13T04:08:16;2.40;99.90
3842;DHT22;1936;47.074;15.336;2022-11-13T04:10:20;2.40;99.90
3842;DHT22;1936;47.074;15.336;2022-11-13T04:12:23;2.30;99.90
3842;DHT22;1936;47.074;15.336;2022-11-13T04:14:26;2.20;99.90
3842;DHT22;1936;47.074;15.336;2022-11-13T04:16:29;2.20;99.90
3842;DHT22;1936;47.074;15.336;2022-11-13T04:18:33;2.20;99.90
3842;DHT22;1936;47.074;15.336;2022-11-13T04:20:37;2.20;99.90
3842;DHT22;1936;47.074;15.336;2022-11-13T04:22:41;2.10;99.90
3842;DHT22;1936;47.074;15.336;2022-11-13T04:24:45;2.20;99.90
3842;DHT22;1936;47.074;15.336;2022-11-13T04:26:48;2.10;99.90
3842;DHT22;1936;47.074;15.336;2022-11-13T04:28:51;2.10;99.90
3842;DHT22;1936;47.074;15.336;2022-11-13T04:30:55;2.10;99.90
3842;DHT22;1936;47.074;15.336;2022-11-13T04:32:58;2.10;99.90
3842;DHT22;1936;47.074;15.336;2022-11-13T04:35:02;2.00;99.90
3842;DHT22;1936;47.074;15.336;2022-11-13T04:37:07;2.10;99.90
3842;DHT22;1936;47.074;15.336;2022-11-13T04:39:10;2.00;99.90
3842;DHT22;1936;47.074;15.336;2022-11-13T04:41:13;2.00;99.90
3842;DHT22;1936;47.074;15.336;2022-11-13T04:43:55;2.00;99.90
3842;DHT22;1936;47.074;15.336;2022-11-13T04:45:59;2.00;99.90
3842;DHT22;1936;47.074;15.336;2022-11-13T04:48:02;2.10;99.90
3842;DHT22;1936;47.074;15.336;2022-11-13T04:50:06;2.10;99.90
3842;DHT22;1936;47.074;15.336;2022-11-13T04:52:11;2.10;99.90
3842;DHT22;1936;47.074;15.336;2022-11-13T04:54:14;2.10;99.90
3842;DHT22;1936;47.074;15.336;2022-11-13T04:56:18;2.10;99.90
3842;DHT22;1936;47.074;15.336;2022-11-13T04:58:21;2.10;99.90
3842;DHT22;1936;47.074;15.336;2022-11-13T05:00:25;2.00;99.90
3842;DHT22;1936;47.074;15.336;2022-11-13T05:02:28;2.00;99.90
3842;DHT22;1936;47.074;15.336;2022-11-13T05:04:31;2.00;99.90
3842;DHT22;1936;47.074;15.336;2022-11-13T05:06:35;2.00;99.90
3842;DHT22;1936;47.074;15.336;2022-11-13T05:08:39;2.00;99.90
3842;DHT22;1936;47.074;15.336;2022-11-13T05:10:43;1.90;99.90
3842;DHT22;1936;47.074;15.336;2022-11-13T05:12:46;1.80;99.90
3842;DHT22;1936;47.074;15.336;2022-11-13T05:14:49;1.80;99.90
3842;DHT22;1936;47.074;15.336;2022-11-13T05:16:52;1.70;99.90
3842;DHT22;1936;47.074;15.336;2022-11-13T05:18:57;1.70;99.90
3842;DHT22;1936;47.074;15.336;2022-11-13T05:21:01;1.70;99.90
3842;DHT22;1936;47.074;15.336;2022-11-13T05:23:04;1.70;99.90
3842;DHT22;1936;47.074;15.336;2022-11-13T05:25:09;1.60;99.90
3842;DHT22;1936;47.074;15.336;2022-11-13T05:27:12;1.50;99.90
3842;DHT22;1936;47.074;15.336;2022-11-13T05:29:18;1.60;99.90
3842;DHT22;1936;47.074;15.336;2022-11-13T05:31:22;1.60;99.90
3842;DHT22;1936;47.074;15.336;2022-11-13T05:33:27;1.60;99.90
3842;DHT22;1936;47.074;15.336;2022-11-13T05:35:31;1.60;99.90
3842;DHT22;1936;47.074;15.336;2022-11-13T05:37:34;1.70;99.90
3842;DHT22;1936;47.074;15.336;2022-11-13T05:39:38;1.90;99.90
3842;DHT22;1936;47.074;15.336;2022-11-13T05:41:42;2.10;99.90
3842;DHT22;1936;47.074;15.336;2022-11-13T05:43:46;2.30;99.90
3842;DHT22;1936;47.074;15.336;2022-11-13T05:45:49;2.50;99.90
3842;DHT22;1936;47.074;15.336;2022-11-13T05:47:53;2.60;99.90
3842;DHT22;1936;47.074;15.336;2022-11-13T05:49:56;2.80;99.90
3842;DHT22;1936;47.074;15.336;2022-11-13T05:51:59;3.00;99.90
3842;DHT22;1936;47.074;15.336;2022-11-13T05:54:03;3.10;99.90
3842;DHT22;1936;47.074;15.336;2022-11-13T05:56:09;3.20;99.90
3842;DHT22;1936;47.074;15.336;2022-11-13T05:58:14;3.30;99.90
3842;DHT22;1936;47.074;15.336;2022-11-13T06:00:18;3.30;99.90
3842;DHT22;1936;47.074;15.336;2022-11-13T06:02:21;3.40;99.90
3842;DHT22;1936;47.074;15.336;2022-11-13T06:04:24;3.40;99.90
3842;DHT22;1936;47.074;15.336;2022-11-13T06:06:29;3.60;99.90
3842;DHT22;1936;47.074;15.336;2022-11-13T06:08:33;3.60;99.90
3842;DHT22;1936;47.074;15.336;2022-11-13T06:10:36;3.70;99.90
3842;DHT22;1936;47.074;15.336;2022-11-13T06:12:39;3.80;99.90
3842;DHT22;1936;47.074;15.336;2022-11-13T06:14:44;3.90;99.90
3842;DHT22;1936;47.074;15.336;2022-11-13T06:16:47;4.00;99.90
3842;DHT22;1936;47.074;15.336;2022-11-13T06:18:54;4.00;99.90
3842;DHT22;1936;47.074;15.336;2022-11-13T06:21:00;4.10;99.90
3842;DHT22;1936;47.074;15.336;2022-11-13T06:23:03;4.20;99.90
3842;DHT22;1936;47.074;15.336;2022-11-13T06:25:06;4.20;99.90
3842;DHT22;1936;47.074;15.336;2022-11-13T06:27:10;4.30;99.90
3842;DHT22;1936;47.074;15.336;2022-11-13T06:29:13;4.40;99.90
3842;DHT22;1936;47.074;15.336;2022-11-13T06:31:21;4.50;99.90
3842;DHT22;1936;47.074;15.336;2022-11-13T06:33:27;4.60;99.90
3842;DHT22;1936;47.074;15.336;2022-11-13T06:35:30;4.60;99.90
3842;DHT22;1936;47.074;15.336;2022-11-13T06:37:34;4.70;99.90
3842;DHT22;1936;47.074;15.336;2022-11-13T06:39:37;4.70;99.90
3842;DHT22;1936;47.074;15.336;2022-11-13T06:41:40;4.80;99.90
3842;DHT22;1936;47.074;15.336;2022-11-13T06:43:44;4.90;99.90
3842;DHT22;1936;47.074;15.336;2022-11-13T06:45:48;4.90;99.90
3842;DHT22;1936;47.074;15.336;2022-11-13T06:47:54;5.00;99.90
3842;DHT22;1936;47.074;15.336;2022-11-13T06:49:57;5.00;99.90
3842;DHT22;1936;47.074;15.336;2022-11-13T06:52:00;5.10;99.90
3842;DHT22;1936;47.074;15.336;2022-11-13T06:54:04;5.10;99.90
3842;DHT22;1936;47.074;15.336;2022-11-13T06:56:07;5.20;99.90
3842;DHT22;1936;47.074;15.336;2022-11-13T06:58:11;5.30;99.90
3842;DHT22;1936;47.074;15.336;2022-11-13T07:00:15;5.50;99.90
3842;DHT22;1936;47.074;15.336;2022-11-13T07:02:19;5.50;99.90
3842;DHT22;1936;47.074;15.336;2022-11-13T07:04:23;5.50;99.90
3842;DHT22;1936;47.074;15.336;2022-11-13T07:06:27;5.60;99.90
3842;DHT22;1936;47.074;15.336;2022-11-13T07:08:30;5.60;99.90
3842;DHT22;1936;47.074;15.336;2022-11-13T07:10:34;5.80;99.90
3842;DHT22;1936;47.074;15.336;2022-11-13T07:12:37;5.90;99.90
3842;DHT22;1936;47.074;15.336;2022-11-13T07:14:42;6.00;99.90
3842;DHT22;1936;47.074;15.336;2022-11-13T07:16:45;6.10;99.90
3842;DHT22;1936;47.074;15.336;2022-11-13T07:19:09;6.10;99.90
3842;DHT22;1936;47.074;15.336;2022-11-13T07:21:13;6.10;99.90
3842;DHT22;1936;47.074;15.336;2022-11-13T07:23:17;6.10;99.90
3842;DHT22;1936;47.074;15.336;2022-11-13T07:25:20;6.10;99.90
3842;DHT22;1936;47.074;15.336;2022-11-13T07:27:23;6.10;99.90
3842;DHT22;1936;47.074;15.336;2022-11-13T07:29:27;6.20;99.90
3842;DHT22;1936;47.074;15.336;2022-11-13T07:31:30;6.20;99.90
3842;DHT22;1936;47.074;15.336;2022-11-13T07:33:33;6.30;99.90
3842;DHT22;1936;47.074;15.336;2022-11-13T07:35:37;6.30;99.90
3842;DHT22;1936;47.074;15.336;2022-11-13T07:37:41;6.40;99.90
3842;DHT22;1936;47.074;15.336;2022-11-13T07:39:45;6.50;99.90
3842;DHT22;1936;47.074;15.336;2022-11-13T07:41:48;6.60;99.90
3842;DHT22;1936;47.074;15.336;2022-11-13T07:43:51;6.80;99.90
3842;DHT22;1936;47.074;15.336;2022-11-13T07:45:58;6.80;99.90
3842;DHT22;1936;47.074;15.336;2022-11-13T07:48:03;6.80;99.90
3842;DHT22;1936;47.074;15.336;2022-11-13T07:50:07;6.90;99.90
3842;DHT22;1936;47.074;15.336;2022-11-13T07:52:12;6.90;99.90
3842;DHT22;1936;47.074;15.336;2022-11-13T07:54:16;6.90;99.90
3842;DHT22;1936;47.074;15.336;2022-11-13T07:56:19;7.00;99.90
3842;DHT22;1936;47.074;15.336;2022-11-13T07:58:24;7.10;99.90
3842;DHT22;1936;47.074;15.336;2022-11-13T08:00:29;7.20;99.90
3842;DHT22;1936;47.074;15.336;2022-11-13T08:02:33;7.40;99.90
3842;DHT22;1936;47.074;15.336;2022-11-13T08:04:37;7.60;99.90
3842;DHT22;1936;47.074;15.336;2022-11-13T08:06:41;7.90;99.90
3842;DHT22;1936;47.074;15.336;2022-11-13T08:08:46;8.10;99.90
3842;DHT22;1936;47.074;15.336;2022-11-13T08:10:51;8.40;99.90
3842;DHT22;1936;47.074;15.336;2022-11-13T08:12:59;8.80;99.90
3842;DHT22;1936;47.074;15.336;2022-11-13T08:15:03;9.40;99.90
3842;DHT22;1936;47.074;15.336;2022-11-13T08:17:14;9.60;99.90
3842;DHT22;1936;47.074;15.336;2022-11-13T08:19:17;9.60;99.90
3842;DHT22;1936;47.074;15.336;2022-11-13T08:21:20;9.80;99.90
3842;DHT22;1936;47.074;15.336;2022-11-13T08:23:24;10.00;99.90
3842;DHT22;1936;47.074;15.336;2022-11-13T08:25:28;10.40;99.90
3842;DHT22;1936;47.074;15.336;2022-11-13T08:27:33;11.00;99.90
3842;DHT22;1936;47.074;15.336;2022-11-13T08:29:36;12.10;99.90
3842;DHT22;1936;47.074;15.336;2022-11-13T08:31:40;12.30;99.90
3842;DHT22;1936;47.074;15.336;2022-11-13T08:33:43;12.40;99.90
3842;DHT22;1936;47.074;15.336;2022-11-13T08:35:56;12.90;99.90
3842;DHT22;1936;47.074;15.336;2022-11-13T08:38:01;13.20;99.90
3842;DHT22;1936;47.074;15.336;2022-11-13T08:40:08;14.10;99.90
3842;DHT22;1936;47.074;15.336;2022-11-13T08:42:12;15.20;99.90
3842;DHT22;1936;47.074;15.336;2022-11-13T08:44:17;15.80;99.90
3842;DHT22;1936;47.074;15.336;2022-11-13T08:46:20;16.10;99.90
3842;DHT22;1936;47.074;15.336;2022-11-13T08:48:24;17.00;99.90
3842;DHT22;1936;47.074;15.336;2022-11-13T08:50:28;17.80;99.90
3842;DHT22;1936;47.074;15.336;2022-11-13T08:52:32;18.00;99.90
3842;DHT22;1936;47.074;15.336;2022-11-13T08:54:35;19.00;99.90
3842;DHT22;1936;47.074;15.336;2022-11-13T08:56:39;20.10;98.10
3842;DHT22;1936;47.074;15.336;2022-11-13T08:58:42;20.40;97.40
3842;DHT22;1936;47.074;15.336;2022-11-13T09:00:47;20.70;94.50
3842;DHT22;1936;47.074;15.336;2022-11-13T09:02:53;21.20;94.30
3842;DHT22;1936;47.074;15.336;2022-11-13T09:04:56;21.20;94.40
3842;DHT22;1936;47.074;15.336;2022-11-13T09:06:59;21.10;93.20
3842;DHT22;1936;47.074;15.336;2022-11-13T09:09:04;21.80;91.50
3842;DHT22;1936;47.074;15.336;2022-11-13T09:11:07;21.50;91.40
3842;DHT22;1936;47.074;15.336;2022-11-13T09:13:11;20.50;92.30
3842;DHT22;1936;47.074;15.336;2022-11-13T09:15:14;20.70;91.10
3842;DHT22;1936;47.074;15.336;2022-11-13T09:17:26;20.60;91.20
3842;DHT22;1936;47.074;15.336;2022-11-13T09:19:29;21.30;89.40
3842;DHT22;1936;47.074;15.336;2022-11-13T09:21:33;21.70;87.90
3842;DHT22;1936;47.074;15.336;2022-11-13T09:23:36;22.20;85.60
3842;DHT22;1936;47.074;15.336;2022-11-13T09:25:39;21.50;84.70
3842;DHT22;1936;47.074;15.336;2022-11-13T09:27:50;22.10;82.80
3842;DHT22;1936;47.074;15.336;2022-11-13T09:29:53;22.80;80.90
3842;DHT22;1936;47.074;15.336;2022-11-13T09:31:57;22.90;78.80
3842;DHT22;1936;47.074;15.336;2022-11-13T09:34:01;23.00;77.50
3842;DHT22;1936;47.074;15.336;2022-11-13T09:36:09;23.30;75.30
3842;DHT22;1936;47.074;15.336;2022-11-13T09:38:14;22.80;78.10
3842;DHT22;1936;47.074;15.336;2022-11-13T09:40:24;23.40;75.90
3842;DHT22;1936;47.074;15.336;2022-11-13T09:42:30;22.80;76.60
3842;DHT22;1936;47.074;15.336;2022-11-13T09:44:37;21.40;75.60
3842;DHT22;1936;47.074;15.336;2022-11-13T09:46:44;22.10;77.10
3842;DHT22;1936;47.074;15.336;2022-11-13T09:48:53;22.30;76.70
3842;DHT22;1936;47.074;15.336;2022-11-13T09:51:04;22.20;78.70
3842;DHT22;1936;47.074;15.336;2022-11-13T09:53:09;22.90;78.00
3842;DHT22;1936;47.074;15.336;2022-11-13T09:55:16;23.30;76.20
3842;DHT22;1936;47.074;15.336;2022-11-13T09:57:27;23.60;71.50
3842;DHT22;1936;47.074;15.336;2022-11-13T09:59:36;23.70;74.80
3842;DHT22;1936;47.074;15.336;2022-11-13T10:01:48;23.90;73.20
3842;DHT22;1936;47.074;15.336;2022-11-13T10:03:58;24.00;70.80
3842;DHT22;1936;47.074;15.336;2022-11-13T10:06:17;22.80;67.90
3842;DHT22;1936;47.074;15.336;2022-11-13T10:08:26;23.60;71.30
3842;DHT22;1936;47.074;15.336;2022-11-13T10:10:41;23.70;73.30
3842;DHT22;1936;47.074;15.336;2022-11-13T10:12:55;23.80;68.00
3842;DHT22;1936;47.074;15.336;2022-11-13T10:15:03;22.70;66.70
3842;DHT22;1936;47.074;15.336;2022-11-13T10:17:11;22.10;71.70
3842;DHT22;1936;47.074;15.336;2022-11-13T10:19:22;22.60;74.80
3842;DHT22;1936;47.074;15.336;2022-11-13T10:21:32;21.90;72.70
3842;DHT22;1936;47.074;15.336;2022-11-13T10:23:37;22.00;73.60
3842;DHT22;1936;47.074;15.336;2022-11-13T10:25:43;21.00;71.40
3842;DHT22;1936;47.074;15.336;2022-11-13T10:27:52;21.40;76.20
3842;DHT22;1936;47.074;15.336;2022-11-13T10:29:56;21.80;74.50
3842;DHT22;1936;47.074;15.336;2022-11-13T10:32:15;21.00;76.10
3842;DHT22;1936;47.074;15.336;2022-11-13T10:34:19;18.90;76.60
3842;DHT22;1936;47.074;15.336;2022-11-13T10:36:30;17.90;82.00
3842;DHT22;1936;47.074;15.336;2022-11-13T10:38:39;18.20;85.00
3842;DHT22;1936;47.074;15.336;2022-11-13T10:40:45;18.70;79.50
3842;DHT22;1936;47.074;15.336;2022-11-13T10:42:48;18.40;78.30
3842;DHT22;1936;47.074;15.336;2022-11-13T10:44:54;18.50;79.10
3842;DHT22;1936;47.074;15.336;2022-11-13T10:47:07;18.40;82.50
3842;DHT22;1936;47.074;15.336;2022-11-13T10:49:18;18.90;79.40
3842;DHT22;1936;47.074;15.336;2022-11-13T10:51:24;19.10;78.60
3842;DHT22;1936;47.074;15.336;2022-11-13T10:53:40;19.00;78.80
3842;DHT22;1936;47.074;15.336;2022-11-13T10:55:44;18.50;80.30
3842;DHT22;1936;47.074;15.336;2022-11-13T10:57:54;19.00;78.80
3842;DHT22;1936;47.074;15.336;2022-11-13T10:59:58;19.70;77.80
3842;DHT22;1936;47.074;15.336;2022-11-13T11:02:08;19.60;80.10
3842;DHT22;1936;47.074;15.336;2022-11-13T11:04:20;18.70;81.80
3842;DHT22;1936;47.074;15.336;2022-11-13T11:06:31;17.40;88.20
3842;DHT22;1936;47.074;15.336;2022-11-13T11:09:06;16.20;89.90
3842;DHT22;1936;47.074;15.336;2022-11-13T11:11:13;15.50;91.40
3842;DHT22;1936;47.074;15.336;2022-11-13T11:13:34;14.90;93.30
3842;DHT22;1936;47.074;15.336;2022-11-13T11:15:42;15.00;94.10
3842;DHT22;1936;47.074;15.336;2022-11-13T11:17:50;15.30;92.70
3842;DHT22;1936;47.074;15.336;2022-11-13T11:19:59;15.60;92.70
3842;DHT22;1936;47.074;15.336;2022-11-13T11:22:08;15.20;93.20
3842;DHT22;1936;47.074;15.336;2022-11-13T11:24:21;14.50;92.90
3842;DHT22;1936;47.074;15.336;2022-11-13T11:26:30;14.50;94.60
3842;DHT22;1936;47.074;15.336;2022-11-13T11:28:38;14.60;95.30
3842;DHT22;1936;47.074;15.336;2022-11-13T11:30:48;14.80;95.70
3842;DHT22;1936;47.074;15.336;2022-11-13T11:32:56;15.70;94.30
3842;DHT22;1936;47.074;15.336;2022-11-13T11:35:11;16.70;93.40
3842;DHT22;1936;47.074;15.336;2022-11-13T11:37:18;17.50;90.20
3842;DHT22;1936;47.074;15.336;2022-11-13T11:39:28;16.80;89.50
3842;DHT22;1936;47.074;15.336;2022-11-13T11:41:39;16.60;90.20
3842;DHT22;1936;47.074;15.336;2022-11-13T11:43:52;17.00;90.40
3842;DHT22;1936;47.074;15.336;2022-11-13T11:46:03;16.90;90.90
3842;DHT22;1936;47.074;15.336;2022-11-13T11:48:12;16.40;91.60
3842;DHT22;1936;47.074;15.336;2022-11-13T11:50:21;15.50;92.00
3842;DHT22;1936;47.074;15.336;2022-11-13T11:52:44;15.60;92.40
3842;DHT22;1936;47.074;15.336;2022-11-13T11:55:16;16.20;93.80
3842;DHT22;1936;47.074;15.336;2022-11-13T11:57:35;16.10;92.90
3842;DHT22;1936;47.074;15.336;2022-11-13T11:59:50;16.50;93.80
3842;DHT22;1936;47.074;15.336;2022-11-13T12:04:46;15.90;94.20
3842;DHT22;1936;47.074;15.336;2022-11-13T12:07:04;16.40;93.30
3842;DHT22;1936;47.074;15.336;2022-11-13T12:09:16;16.90;95.90
3842;DHT22;1936;47.074;15.336;2022-11-13T12:11:26;16.70;96.20
3842;DHT22;1936;47.074;15.336;2022-11-13T12:13:32;16.80;95.90
3842;DHT22;1936;47.074;15.336;2022-11-13T12:15:45;17.10;93.10
3842;DHT22;1936;47.074;15.336;2022-11-13T12:17:55;17.40;90.40
3842;DHT22;1936;47.074;15.336;2022-11-13T12:20:07;17.70;90.90
3842;DHT22;1936;47.074;15.336;2022-11-13T12:22:16;18.30;89.70
3842;DHT22;1936;47.074;15.336;2022-11-13T12:24:49;18.60;87.40
3842;DHT22;1936;47.074;15.336;2022-11-13T12:27:07;19.60;87.80
3842;DHT22;1936;47.074;15.336;2022-11-13T12:29:23;19.50;85.60
3842;DHT22;1936;47.074;15.336;2022-11-13T12:31:42;20.30;81.50
3842;DHT22;1936;47.074;15.336;2022-11-13T12:33:54;20.20;80.00
3842;DHT22;1936;47.074;15.336;2022-11-13T12:36:03;20.00;82.20
3842;DHT22;1936;47.074;15.336;2022-11-13T12:38:15;20.90;80.90
3842;DHT22;1936;47.074;15.336;2022-11-13T12:40:26;20.60;79.20
3842;DHT22;1936;47.074;15.336;2022-11-13T12:42:33;20.20;78.90
3842;DHT22;1936;47.074;15.336;2022-11-13T12:44:45;19.30;81.80
3842;DHT22;1936;47.074;15.336;2022-11-13T12:46:50;19.80;79.90
3842;DHT22;1936;47.074;15.336;2022-11-13T12:48:54;19.80;79.00
3842;DHT22;1936;47.074;15.336;2022-11-13T12:50:59;19.50;79.30
3842;DHT22;1936;47.074;15.336;2022-11-13T12:53:06;19.70;79.90
3842;DHT22;1936;47.074;15.336;2022-11-13T12:55:24;19.40;80.00
3842;DHT22;1936;47.074;15.336;2022-11-13T12:57:31;20.20;79.60
3842;DHT22;1936;47.074;15.336;2022-11-13T12:59:39;20.40;77.70
3842;DHT22;1936;47.074;15.336;2022-11-13T13:01:45;19.70;78.60
3842;DHT22;1936;47.074;15.336;2022-11-13T13:06:52;20.00;80.70
3842;DHT22;1936;47.074;15.336;2022-11-13T13:09:10;20.30;78.90
3842;DHT22;1936;47.074;15.336;2022-11-13T13:11:23;19.90;78.40
3842;DHT22;1936;47.074;15.336;2022-11-13T13:13:37;19.80;79.20
3842;DHT22;1936;47.074;15.336;2022-11-13T13:15:45;19.80;78.20
3842;DHT22;1936;47.074;15.336;2022-11-13T13:18:08;19.60;78.30
3842;DHT22;1936;47.074;15.336;2022-11-13T13:20:30;19.40;78.70
3842;DHT22;1936;47.074;15.336;2022-11-13T13:22:35;19.80;78.10
3842;DHT22;1936;47.074;15.336;2022-11-13T13:24:38;19.60;78.10
3842;DHT22;1936;47.074;15.336;2022-11-13T13:26:46;19.20;79.90
3842;DHT22;1936;47.074;15.336;2022-11-13T13:28:52;19.20;77.50
3842;DHT22;1936;47.074;15.336;2022-11-13T13:31:05;18.70;81.70
3842;DHT22;1936;47.074;15.336;2022-11-13T13:33:19;18.50;79.70
3842;DHT22;1936;47.074;15.336;2022-11-13T13:35:28;18.90;80.20
3842;DHT22;1936;47.074;15.336;2022-11-13T13:37:38;19.10;79.60
3842;DHT22;1936;47.074;15.336;2022-11-13T13:39:54;18.60;81.80
3842;DHT22;1936;47.074;15.336;2022-11-13T13:42:11;19.00;80.10
3842;DHT22;1936;47.074;15.336;2022-11-13T13:44:36;18.80;78.80